AirNav   Everest Fuels
 
 360 users online  

68AK Cowell's Heliport
Big Lake, Alaska, USA

GOING TO BIG LAKE?


FAA INFORMATION EFFECTIVE 10 OCTOBER 2019

Location

FAA Identifier: 68AK
Lat/Long: 61-30-59.6900N 149-55-51.8900W
61-30.994833N 149-55.864833W
61.5165806,-149.9310806
(estimated)
Elevation: 142 ft. / 43 m (estimated)
From city: 4 miles SW of BIG LAKE, AK
Time zone: UTC -8 (UTC -9 during Standard Time)
Zip code: 99652

Heliport Operations

Heliport use: Private use. Permission required prior to landing
Activation date: 07/2004
Control tower: no
ARTCC: ANCHORAGE CENTER
FSS: KENAI FLIGHT SERVICE STATION [907-283-7211]
Attendance: UNATNDD
Segmented circle: no

Heliport Communications

CTAF: 122.8
WX AWOS-3P at IYS (12 nm E): 135.25 (907-373-3801)
WX AWOS-3P at BCV (14 nm SE): 135.55 (907-688-0826)
WX AWOS-3 at FRN (17 nm SE): 134.25 or 118.525 (907-384-0132)
WX ASOS at MRI (18 nm S): 124.25 (907-271-5277)
WX ASOS at LHD (20 nm S): PHONE 907-245-1618

Nearby radio navigation aids

VOR radial/distance  VOR name  Freq  Var
BGQr143/3.3BIG LAKE VORTAC112.5019E
TEDr344/20.9ANCHORAGE VOR/DME113.1518E

 
NDB name  Hdg/Dist  Freq  Var  ID
CAMPBELL LAKE353/21.033816ECMQ -.-. -- --.-

Heliport Services

Runway Information

Helipad H1

Dimensions: 20 x 20 ft. / 6 x 6 m
Surface: wood
Traffic pattern: leftleft

Heliport Ownership and Management from official FAA records

Ownership: Privately-owned
Owner: FULLER A. COWELL
927 1ST STREET
FAIRBANKS, AK 99701
Phone (907) 227-7333
Manager: FULLER A. COWELL
927 1ST STREET
FAIRBANKS, AK 99701
Phone (907) 227-7333

Heliport Operational Statistics

Aircraft based on the field: 1
Helicopters: 1
    

Instrument Procedures

There are no published instrument procedures at 68AK.

Some nearby airports with instrument procedures:

PAGQ - Big Lake Airport (4 nm E)
PAWS - Wasilla Airport (12 nm E)
PAUO - Willow Airport (15 nm N)
PAED - Elmendorf Air Force Base (16 nm S)
PAFR - Bryant Army Airfield Heliport (17 nm SE)
PAMR - Merrill Field Airport (18 nm S)
 
Loc | Ops | Rwys | IFR | FBO | Links
Com | Nav | Svcs | Stats | Notes

Crowley
 
Area around 68AK (Cowell's Heliport)
 
Road maps at: MapQuest Bing Google
 
Aerial photo
No photo
 
Sectional chart

 
Airport distance calculator
Flying to Cowell's Heliport? Find the distance to fly.

From to 68AK

Sunrise and sunset
Times for 15-Oct-2019
 Local
(UTC-8)
 Zulu
(UTC)
Morning civil twilight08:0016:00
Sunrise08:4416:44
Sunset18:4702:47
Evening civil twilight19:3103:31

Current date and time
Zulu (UTC)  16-Oct-2019 06:25:41
Local (UTC-8)  15-Oct-2019 22:25:41
 
METAR
PABV 
13nm SE 
160556Z AUTO 00000KT 10SM OVC090 01/M04 A2932 RMK AO2 SLP936 T00061044 10028 20000 53012 FZRANO
PAED 
16nm S 
160556Z AUTO 00000KT 10SM BKN046 OVC055 02/M07 A2930 RMK AO2 SLP919 T00191072 10040 20016 52012 $
PAFR 
17nm SE 
160558Z AUTO 00000KT 10SM FEW035 OVC048 00/M04 A2927 RMK AO2 SLP922 T10051039 10037 21009 52012 $
PAMR 
18nm S 
160553Z AUTO 02003KT 10SM BKN050 OVC070 03/M08 A2931 RMK AO2 SLP926 T00281083 10044 20022 53012 TSNO
PALH 
20nm S 
160553Z 04003KT 10SM BKN049 OVC075 03/M06 A2932 RMK AO2 SLP929 T00281061 10044 20028 53012
PANC 
21nm S 
160553Z 02007KT 10SM BKN048 OVC060 03/M07 A2931 RMK AO2 SLP926 T00331072 10050 20033 53012
PAAQ 
25nm E 
160553Z AUTO 00000KT 10SM OVC075 00/M04 A2930 RMK AO2 SLP925 T00001044 10011 21006 53012 TSNO
TAF
PAED 
16nm S 
160300Z 1603/1709 36006KT 9999 BKN040 620606 QNH2926INS BECMG 1604/1605 01006KT 9999 SCT005 BKN020 OVC045 620209 QNH2929INS TEMPO 1606/1612 6000 -SN BKN005 OVC015 620059 BECMG 1611/1612 VRB06KT 6000 -SN OVC005 620059 QNH2904INS BECMG 1702/1703 VRB06KT 6000 -RA BKN005 OVC015 620059 QNH2909INS TX05/1700Z TNM04/1615Z
NOTAMs
Click for the latest NOTAMs
NOTAMs are issued by the DoD/FAA and will open in a separate window not controlled by AirNav.

 

 
 

Would you like to see your business listed on this page?

 If your business provides an interesting product or service to pilots, flight crews, aircraft, or users of the Cowell's Heliport, you should consider listing it here.  To start the listing process, click on the button below
 
Add a business
 

Other Pages about Cowell's Heliport

Update a link
 
Copyright © AirNav, LLC. All rights reserved. Privacy Policy  Contact